< Typhoon 195809 1958 Season Typhoon 195811 >
Typhoon 195810 (WINNIE)
General InformationTrack Information on Google Maps || Disaster Info.ResourceGoogle EarthGE AnimationAtom FeedGeoJSON
Detalied Best Track (Time Zone = UTC)
Year Month Day Hour Lat. Long. Pressure (hPa) Wind (kt) Class Image Chart
1958 7 11 00 16.0 135.0 1004 0 2 -- Chart
1958 7 11 06 16.4 134.3 1002 0 2 -- Chart
1958 7 11 12 16.7 133.7 1002 0 2 -- Chart
1958 7 11 18 17.2 133.0 998 0 2 -- Chart
1958 7 12 00 17.6 132.3 960 0 9 -- Chart
1958 7 12 06 18.2 131.6 960 0 9 -- Chart
1958 7 12 12 18.9 131.1 960 0 9 -- Chart
1958 7 12 18 19.5 130.6 960 0 9 -- Chart
1958 7 13 00 19.5 130.0 925 0 9 -- Chart
1958 7 13 06 19.5 129.5 925 0 9 -- Chart
1958 7 13 12 19.7 128.7 925 0 9 -- Chart
1958 7 13 18 20.3 127.9 930 0 9 -- Chart
1958 7 14 00 20.6 127.1 940 0 9 -- Chart
1958 7 14 06 21.0 126.0 940 0 9 -- Chart
1958 7 14 12 21.3 125.3 940 0 9 -- Chart
1958 7 14 18 21.6 124.5 940 0 9 -- Chart
1958 7 15 00 22.1 123.5 940 0 9 -- Chart
1958 7 15 06 22.7 122.7 940 0 9 -- Chart
1958 7 15 12 23.6 121.3 950 0 9 -- Chart
1958 7 15 18 24.0 119.7 970 0 9 -- Chart
1958 7 16 00 24.3 118.5 980 0 9 -- Chart
1958 7 16 06 24.6 117.5 980 0 9 -- Chart
1958 7 16 12 25.0 116.5 985 0 9 -- Chart
1958 7 16 18 25.5 115.9 990 0 9 -- Chart
1958 7 17 00 26.1 115.0 990 0 9 -- Chart
1958 7 17 06 26.9 113.9 992 0 9 -- Chart
1958 7 17 12 27.8 112.8 995 0 2 -- Chart
1958 7 17 18 28.6 111.7 998 0 2 -- Chart
1958 7 18 00 29.5 110.2 998 0 6 -- Chart
Japan Meteorological Agency Best Track Data | Correction Date : 1989-06-01
< Typhoon 195809 1958 Season Typhoon 195811 >

Help